sensor_id;sensor_type;location;lat;lon;timestamp;P1;durP1;ratioP1;P2;durP2;ratioP2
49784;SDS011;35679;38.732;-121.358;2023-08-08T00:01:04;5.00;;;4.60;;
49784;SDS011;35679;38.732;-121.358;2023-08-08T00:03:53;5.50;;;5.00;;
49784;SDS011;35679;38.732;-121.358;2023-08-08T00:06:42;6.03;;;5.50;;
49784;SDS011;35679;38.732;-121.358;2023-08-08T00:09:32;8.05;;;6.30;;
49784;SDS011;35679;38.732;-121.358;2023-08-08T00:12:22;6.75;;;6.15;;
49784;SDS011;35679;38.732;-121.358;2023-08-08T00:15:12;6.20;;;5.70;;
49784;SDS011;35679;38.732;-121.358;2023-08-08T00:18:01;5.43;;;4.93;;
49784;SDS011;35679;38.732;-121.358;2023-08-08T00:20:51;5.60;;;5.05;;
49784;SDS011;35679;38.732;-121.358;2023-08-08T00:23:40;5.15;;;4.75;;
49784;SDS011;35679;38.732;-121.358;2023-08-08T00:26:29;5.05;;;4.65;;
49784;SDS011;35679;38.732;-121.358;2023-08-08T00:29:19;6.00;;;4.97;;
49784;SDS011;35679;38.732;-121.358;2023-08-08T00:32:08;5.53;;;5.03;;
49784;SDS011;35679;38.732;-121.358;2023-08-08T00:34:58;4.63;;;4.22;;
49784;SDS011;35679;38.732;-121.358;2023-08-08T00:37:47;5.63;;;5.03;;
49784;SDS011;35679;38.732;-121.358;2023-08-08T00:40:38;4.90;;;4.50;;
49784;SDS011;35679;38.732;-121.358;2023-08-08T00:43:27;4.65;;;4.22;;
49784;SDS011;35679;38.732;-121.358;2023-08-08T00:46:18;4.82;;;4.40;;
49784;SDS011;35679;38.732;-121.358;2023-08-08T00:49:10;5.00;;;4.55;;
49784;SDS011;35679;38.732;-121.358;2023-08-08T00:52:00;4.88;;;4.47;;
49784;SDS011;35679;38.732;-121.358;2023-08-08T00:54:49;5.10;;;4.60;;
49784;SDS011;35679;38.732;-121.358;2023-08-08T00:57:41;4.70;;;4.30;;
49784;SDS011;35679;38.732;-121.358;2023-08-08T01:00:30;5.38;;;4.90;;
49784;SDS011;35679;38.732;-121.358;2023-08-08T01:03:20;4.72;;;4.20;;
49784;SDS011;35679;38.732;-121.358;2023-08-08T01:06:23;5.60;;;5.10;;
49784;SDS011;35679;38.732;-121.358;2023-08-08T01:09:41;5.20;;;4.70;;
49784;SDS011;35679;38.732;-121.358;2023-08-08T01:12:41;5.40;;;4.90;;
49784;SDS011;35679;38.732;-121.358;2023-08-08T01:15:33;5.57;;;5.07;;
49784;SDS011;35679;38.732;-121.358;2023-08-08T01:18:24;5.03;;;4.63;;
49784;SDS011;35679;38.732;-121.358;2023-08-08T01:21:17;5.03;;;4.63;;
49784;SDS011;35679;38.732;-121.358;2023-08-08T01:24:14;5.07;;;4.68;;
49784;SDS011;35679;38.732;-121.358;2023-08-08T01:27:11;4.90;;;4.50;;
49784;SDS011;35679;38.732;-121.358;2023-08-08T01:30:00;4.93;;;4.53;;
49784;SDS011;35679;38.732;-121.358;2023-08-08T01:32:50;5.43;;;4.60;;
49784;SDS011;35679;38.732;-121.358;2023-08-08T01:35:41;5.00;;;4.60;;
49784;SDS011;35679;38.732;-121.358;2023-08-08T01:38:36;5.78;;;4.65;;
49784;SDS011;35679;38.732;-121.358;2023-08-08T01:41:31;5.18;;;4.68;;
49784;SDS011;35679;38.732;-121.358;2023-08-08T01:44:22;5.30;;;4.93;;
49784;SDS011;35679;38.732;-121.358;2023-08-08T01:47:14;5.60;;;5.10;;
49784;SDS011;35679;38.732;-121.358;2023-08-08T01:50:04;5.60;;;5.10;;
49784;SDS011;35679;38.732;-121.358;2023-08-08T01:52:54;6.20;;;5.38;;
49784;SDS011;35679;38.732;-121.358;2023-08-08T01:55:43;5.65;;;5.25;;
49784;SDS011;35679;38.732;-121.358;2023-08-08T01:58:33;5.72;;;5.22;;
49784;SDS011;35679;38.732;-121.358;2023-08-08T02:01:22;5.43;;;4.93;;
49784;SDS011;35679;38.732;-121.358;2023-08-08T02:04:13;4.78;;;4.38;;
49784;SDS011;35679;38.732;-121.358;2023-08-08T02:07:02;6.18;;;5.68;;
49784;SDS011;35679;38.732;-121.358;2023-08-08T02:09:52;5.82;;;5.43;;
49784;SDS011;35679;38.732;-121.358;2023-08-08T02:12:44;5.97;;;5.57;;
49784;SDS011;35679;38.732;-121.358;2023-08-08T02:15:33;6.55;;;6.05;;
49784;SDS011;35679;38.732;-121.358;2023-08-08T02:18:23;6.45;;;5.95;;
49784;SDS011;35679;38.732;-121.358;2023-08-08T02:21:12;6.75;;;6.15;;
49784;SDS011;35679;38.732;-121.358;2023-08-08T02:24:02;6.32;;;5.82;;
49784;SDS011;35679;38.732;-121.358;2023-08-08T02:26:51;6.25;;;5.75;;
49784;SDS011;35679;38.732;-121.358;2023-08-08T02:29:41;5.95;;;5.43;;
49784;SDS011;35679;38.732;-121.358;2023-08-08T02:32:30;6.10;;;5.60;;
49784;SDS011;35679;38.732;-121.358;2023-08-08T02:35:20;6.97;;;6.50;;
49784;SDS011;35679;38.732;-121.358;2023-08-08T02:38:10;7.53;;;6.93;;
49784;SDS011;35679;38.732;-121.358;2023-08-08T02:41:02;6.05;;;5.55;;
49784;SDS011;35679;38.732;-121.358;2023-08-08T02:43:52;5.80;;;5.30;;
49784;SDS011;35679;38.732;-121.358;2023-08-08T02:46:42;5.47;;;4.97;;
49784;SDS011;35679;38.732;-121.358;2023-08-08T02:49:31;5.63;;;5.13;;
49784;SDS011;35679;38.732;-121.358;2023-08-08T02:52:22;5.22;;;4.80;;
49784;SDS011;35679;38.732;-121.358;2023-08-08T02:55:12;5.47;;;4.97;;
49784;SDS011;35679;38.732;-121.358;2023-08-08T02:58:04;4.88;;;4.47;;
49784;SDS011;35679;38.732;-121.358;2023-08-08T03:00:54;4.80;;;4.30;;
49784;SDS011;35679;38.732;-121.358;2023-08-08T03:03:43;4.85;;;4.43;;
49784;SDS011;35679;38.732;-121.358;2023-08-08T03:06:33;5.40;;;5.00;;
49784;SDS011;35679;38.732;-121.358;2023-08-08T03:09:23;6.07;;;5.57;;
49784;SDS011;35679;38.732;-121.358;2023-08-08T03:12:13;7.55;;;7.05;;
49784;SDS011;35679;38.732;-121.358;2023-08-08T03:15:03;7.53;;;6.93;;
49784;SDS011;35679;38.732;-121.358;2023-08-08T03:17:53;8.32;;;7.72;;
49784;SDS011;35679;38.732;-121.358;2023-08-08T03:20:43;8.02;;;7.43;;
49784;SDS011;35679;38.732;-121.358;2023-08-08T03:23:32;8.18;;;7.57;;
49784;SDS011;35679;38.732;-121.358;2023-08-08T03:26:23;6.40;;;5.90;;
49784;SDS011;35679;38.732;-121.358;2023-08-08T03:29:13;6.13;;;5.50;;
49784;SDS011;35679;38.732;-121.358;2023-08-08T03:32:06;6.30;;;5.80;;
49784;SDS011;35679;38.732;-121.358;2023-08-08T03:34:56;8.23;;;7.63;;
49784;SDS011;35679;38.732;-121.358;2023-08-08T03:37:45;8.60;;;8.00;;
49784;SDS011;35679;38.732;-121.358;2023-08-08T03:40:36;8.80;;;8.10;;
49784;SDS011;35679;38.732;-121.358;2023-08-08T03:43:25;8.15;;;7.55;;
49784;SDS011;35679;38.732;-121.358;2023-08-08T03:46:14;8.90;;;8.30;;
49784;SDS011;35679;38.732;-121.358;2023-08-08T03:49:04;7.70;;;7.10;;
49784;SDS011;35679;38.732;-121.358;2023-08-08T03:51:55;8.23;;;7.63;;
49784;SDS011;35679;38.732;-121.358;2023-08-08T03:54:44;7.80;;;7.20;;
49784;SDS011;35679;38.732;-121.358;2023-08-08T03:57:34;7.30;;;6.70;;
49784;SDS011;35679;38.732;-121.358;2023-08-08T04:00:25;9.27;;;6.32;;
49784;SDS011;35679;38.732;-121.358;2023-08-08T04:03:14;6.45;;;5.85;;
49784;SDS011;35679;38.732;-121.358;2023-08-08T04:06:04;6.82;;;6.20;;
49784;SDS011;35679;38.732;-121.358;2023-08-08T04:08:54;6.93;;;6.03;;
49784;SDS011;35679;38.732;-121.358;2023-08-08T04:11:43;6.70;;;6.10;;
49784;SDS011;35679;38.732;-121.358;2023-08-08T04:14:33;6.38;;;5.78;;
49784;SDS011;35679;38.732;-121.358;2023-08-08T04:17:22;6.60;;;6.00;;
49784;SDS011;35679;38.732;-121.358;2023-08-08T04:20:11;6.60;;;6.00;;
49784;SDS011;35679;38.732;-121.358;2023-08-08T04:23:02;6.63;;;5.95;;
49784;SDS011;35679;38.732;-121.358;2023-08-08T04:25:55;7.00;;;6.03;;
49784;SDS011;35679;38.732;-121.358;2023-08-08T04:28:44;6.55;;;5.78;;
49784;SDS011;35679;38.732;-121.358;2023-08-08T04:31:33;5.97;;;5.40;;
49784;SDS011;35679;38.732;-121.358;2023-08-08T04:34:23;6.97;;;5.90;;
49784;SDS011;35679;38.732;-121.358;2023-08-08T04:37:12;5.63;;;5.22;;
49784;SDS011;35679;38.732;-121.358;2023-08-08T04:40:02;6.57;;;6.07;;
49784;SDS011;35679;38.732;-121.358;2023-08-08T04:42:52;7.05;;;6.45;;
49784;SDS011;35679;38.732;-121.358;2023-08-08T04:45:41;6.20;;;5.68;;
49784;SDS011;35679;38.732;-121.358;2023-08-08T04:48:30;7.55;;;6.85;;
49784;SDS011;35679;38.732;-121.358;2023-08-08T04:51:21;6.35;;;5.85;;
49784;SDS011;35679;38.732;-121.358;2023-08-08T04:54:10;6.43;;;5.82;;
49784;SDS011;35679;38.732;-121.358;2023-08-08T04:57:00;6.30;;;5.72;;
49784;SDS011;35679;38.732;-121.358;2023-08-08T04:59:49;6.13;;;5.50;;
49784;SDS011;35679;38.732;-121.358;2023-08-08T05:02:39;5.97;;;5.38;;
49784;SDS011;35679;38.732;-121.358;2023-08-08T05:05:29;6.03;;;5.07;;
49784;SDS011;35679;38.732;-121.358;2023-08-08T05:08:19;5.60;;;5.03;;
49784;SDS011;35679;38.732;-121.358;2023-08-08T05:11:09;5.30;;;4.72;;
49784;SDS011;35679;38.732;-121.358;2023-08-08T05:13:58;5.43;;;4.93;;
49784;SDS011;35679;38.732;-121.358;2023-08-08T05:16:47;5.78;;;4.97;;
49784;SDS011;35679;38.732;-121.358;2023-08-08T05:19:40;5.70;;;4.65;;
49784;SDS011;35679;38.732;-121.358;2023-08-08T05:22:29;6.90;;;5.10;;
49784;SDS011;35679;38.732;-121.358;2023-08-08T05:25:19;6.00;;;5.38;;
49784;SDS011;35679;38.732;-121.358;2023-08-08T05:28:08;5.80;;;5.30;;
49784;SDS011;35679;38.732;-121.358;2023-08-08T05:30:57;7.32;;;5.00;;
49784;SDS011;35679;38.732;-121.358;2023-08-08T05:33:50;5.85;;;5.25;;
49784;SDS011;35679;38.732;-121.358;2023-08-08T05:36:40;6.18;;;5.20;;
49784;SDS011;35679;38.732;-121.358;2023-08-08T05:39:29;5.35;;;4.90;;
49784;SDS011;35679;38.732;-121.358;2023-08-08T05:42:19;5.90;;;5.30;;
49784;SDS011;35679;38.732;-121.358;2023-08-08T05:45:09;6.03;;;5.53;;
49784;SDS011;35679;38.732;-121.358;2023-08-08T05:47:58;6.35;;;5.70;;
49784;SDS011;35679;38.732;-121.358;2023-08-08T05:50:49;6.00;;;5.30;;
49784;SDS011;35679;38.732;-121.358;2023-08-08T05:53:38;5.63;;;5.03;;
49784;SDS011;35679;38.732;-121.358;2023-08-08T05:56:34;5.15;;;4.65;;
49784;SDS011;35679;38.732;-121.358;2023-08-08T05:59:25;5.47;;;4.65;;
49784;SDS011;35679;38.732;-121.358;2023-08-08T06:02:15;5.85;;;4.70;;
49784;SDS011;35679;38.732;-121.358;2023-08-08T06:05:04;5.47;;;4.60;;
49784;SDS011;35679;38.732;-121.358;2023-08-08T06:07:54;6.82;;;4.95;;
49784;SDS011;35679;38.732;-121.358;2023-08-08T06:10:43;6.40;;;4.88;;
49784;SDS011;35679;38.732;-121.358;2023-08-08T06:13:33;7.85;;;5.22;;
49784;SDS011;35679;38.732;-121.358;2023-08-08T06:16:22;5.45;;;4.82;;
49784;SDS011;35679;38.732;-121.358;2023-08-08T06:19:12;5.43;;;4.68;;
49784;SDS011;35679;38.732;-121.358;2023-08-08T06:22:03;6.33;;;5.60;;
49784;SDS011;35679;38.732;-121.358;2023-08-08T06:24:52;5.55;;;5.00;;
49784;SDS011;35679;38.732;-121.358;2023-08-08T06:27:42;6.70;;;5.13;;
49784;SDS011;35679;38.732;-121.358;2023-08-08T06:30:33;5.53;;;5.03;;
49784;SDS011;35679;38.732;-121.358;2023-08-08T06:33:23;6.63;;;5.28;;
49784;SDS011;35679;38.732;-121.358;2023-08-08T06:36:12;5.43;;;4.82;;
49784;SDS011;35679;38.732;-121.358;2023-08-08T06:39:01;5.88;;;4.85;;
49784;SDS011;35679;38.732;-121.358;2023-08-08T06:41:51;5.95;;;5.07;;
49784;SDS011;35679;38.732;-121.358;2023-08-08T06:44:51;7.53;;;5.07;;
49784;SDS011;35679;38.732;-121.358;2023-08-08T06:47:40;6.30;;;4.90;;
49784;SDS011;35679;38.732;-121.358;2023-08-08T06:50:30;7.60;;;5.13;;
49784;SDS011;35679;38.732;-121.358;2023-08-08T06:53:19;5.20;;;4.70;;
49784;SDS011;35679;38.732;-121.358;2023-08-08T06:56:09;5.70;;;4.97;;
49784;SDS011;35679;38.732;-121.358;2023-08-08T06:58:58;6.05;;;5.43;;
49784;SDS011;35679;38.732;-121.358;2023-08-08T07:01:51;5.95;;;5.30;;
49784;SDS011;35679;38.732;-121.358;2023-08-08T07:04:40;6.28;;;4.97;;
49784;SDS011;35679;38.732;-121.358;2023-08-08T07:07:29;5.63;;;4.93;;
49784;SDS011;35679;38.732;-121.358;2023-08-08T07:10:21;5.32;;;4.72;;
49784;SDS011;35679;38.732;-121.358;2023-08-08T07:13:10;7.35;;;5.43;;
49784;SDS011;35679;38.732;-121.358;2023-08-08T07:16:00;5.65;;;5.00;;
49784;SDS011;35679;38.732;-121.358;2023-08-08T07:18:49;6.70;;;4.97;;
49784;SDS011;35679;38.732;-121.358;2023-08-08T07:21:41;7.10;;;5.00;;
49784;SDS011;35679;38.732;-121.358;2023-08-08T07:24:31;6.78;;;5.35;;
49784;SDS011;35679;38.732;-121.358;2023-08-08T07:27:20;5.50;;;4.78;;
49784;SDS011;35679;38.732;-121.358;2023-08-08T07:30:10;6.63;;;5.22;;
49784;SDS011;35679;38.732;-121.358;2023-08-08T07:33:00;6.35;;;5.20;;
49784;SDS011;35679;38.732;-121.358;2023-08-08T07:35:50;6.80;;;5.15;;
49784;SDS011;35679;38.732;-121.358;2023-08-08T07:38:39;6.82;;;5.47;;
49784;SDS011;35679;38.732;-121.358;2023-08-08T07:41:29;5.43;;;4.88;;
49784;SDS011;35679;38.732;-121.358;2023-08-08T07:44:19;9.77;;;5.15;;
49784;SDS011;35679;38.732;-121.358;2023-08-08T07:47:08;5.13;;;4.63;;
49784;SDS011;35679;38.732;-121.358;2023-08-08T07:50:00;8.00;;;5.47;;
49784;SDS011;35679;38.732;-121.358;2023-08-08T07:52:49;6.53;;;4.68;;
49784;SDS011;35679;38.732;-121.358;2023-08-08T07:55:38;6.22;;;5.28;;
49784;SDS011;35679;38.732;-121.358;2023-08-08T07:58:27;6.82;;;5.20;;
49784;SDS011;35679;38.732;-121.358;2023-08-08T08:01:17;7.53;;;5.18;;
49784;SDS011;35679;38.732;-121.358;2023-08-08T08:04:07;5.20;;;4.65;;
49784;SDS011;35679;38.732;-121.358;2023-08-08T08:06:57;6.05;;;5.25;;
49784;SDS011;35679;38.732;-121.358;2023-08-08T08:09:46;6.40;;;5.20;;
49784;SDS011;35679;38.732;-121.358;2023-08-08T08:12:36;9.07;;;5.10;;
49784;SDS011;35679;38.732;-121.358;2023-08-08T08:15:25;5.43;;;4.90;;
49784;SDS011;35679;38.732;-121.358;2023-08-08T08:18:15;5.88;;;4.70;;
49784;SDS011;35679;38.732;-121.358;2023-08-08T08:21:05;6.43;;;5.13;;
49784;SDS011;35679;38.732;-121.358;2023-08-08T08:23:55;5.95;;;5.20;;
49784;SDS011;35679;38.732;-121.358;2023-08-08T08:26:44;5.82;;;5.22;;
49784;SDS011;35679;38.732;-121.358;2023-08-08T08:29:34;7.20;;;5.05;;
49784;SDS011;35679;38.732;-121.358;2023-08-08T08:32:23;7.18;;;4.95;;
49784;SDS011;35679;38.732;-121.358;2023-08-08T08:35:12;5.55;;;4.82;;
49784;SDS011;35679;38.732;-121.358;2023-08-08T08:38:02;7.82;;;5.68;;
49784;SDS011;35679;38.732;-121.358;2023-08-08T08:40:52;5.35;;;4.85;;
49784;SDS011;35679;38.732;-121.358;2023-08-08T08:43:44;6.40;;;5.13;;
49784;SDS011;35679;38.732;-121.358;2023-08-08T08:46:35;7.28;;;5.30;;
49784;SDS011;35679;38.732;-121.358;2023-08-08T08:49:27;6.80;;;5.32;;
49784;SDS011;35679;38.732;-121.358;2023-08-08T08:52:19;6.47;;;5.03;;
49784;SDS011;35679;38.732;-121.358;2023-08-08T08:55:08;8.73;;;5.28;;
49784;SDS011;35679;38.732;-121.358;2023-08-08T08:57:59;5.75;;;5.05;;
49784;SDS011;35679;38.732;-121.358;2023-08-08T09:00:48;5.55;;;5.03;;
49784;SDS011;35679;38.732;-121.358;2023-08-08T09:03:40;5.15;;;4.65;;
49784;SDS011;35679;38.732;-121.358;2023-08-08T09:06:32;5.40;;;4.82;;
49784;SDS011;35679;38.732;-121.358;2023-08-08T09:09:22;5.38;;;4.88;;
49784;SDS011;35679;38.732;-121.358;2023-08-08T09:12:14;5.38;;;4.85;;
49784;SDS011;35679;38.732;-121.358;2023-08-08T09:15:06;5.97;;;4.82;;
49784;SDS011;35679;38.732;-121.358;2023-08-08T09:18:00;5.55;;;4.63;;
49784;SDS011;35679;38.732;-121.358;2023-08-08T09:20:50;6.95;;;4.93;;
49784;SDS011;35679;38.732;-121.358;2023-08-08T09:23:39;5.85;;;4.50;;
49784;SDS011;35679;38.732;-121.358;2023-08-08T09:26:32;6.63;;;5.20;;
49784;SDS011;35679;38.732;-121.358;2023-08-08T09:29:23;5.50;;;4.93;;
49784;SDS011;35679;38.732;-121.358;2023-08-08T09:32:12;5.57;;;4.80;;
49784;SDS011;35679;38.732;-121.358;2023-08-08T09:35:03;7.47;;;4.93;;
49784;SDS011;35679;38.732;-121.358;2023-08-08T09:37:56;5.78;;;4.63;;
49784;SDS011;35679;38.732;-121.358;2023-08-08T09:40:45;6.97;;;4.72;;
49784;SDS011;35679;38.732;-121.358;2023-08-08T09:43:34;6.95;;;4.65;;
49784;SDS011;35679;38.732;-121.358;2023-08-08T09:46:24;6.35;;;4.95;;
49784;SDS011;35679;38.732;-121.358;2023-08-08T09:49:14;5.90;;;4.75;;
49784;SDS011;35679;38.732;-121.358;2023-08-08T09:52:04;6.13;;;4.38;;
49784;SDS011;35679;38.732;-121.358;2023-08-08T09:54:54;5.50;;;4.50;;
49784;SDS011;35679;38.732;-121.358;2023-08-08T09:57:44;5.90;;;4.40;;
49784;SDS011;35679;38.732;-121.358;2023-08-08T10:00:35;6.05;;;4.40;;
49784;SDS011;35679;38.732;-121.358;2023-08-08T10:03:25;5.53;;;4.43;;
49784;SDS011;35679;38.732;-121.358;2023-08-08T10:06:17;5.45;;;4.28;;
49784;SDS011;35679;38.732;-121.358;2023-08-08T10:09:07;5.82;;;4.40;;
49784;SDS011;35679;38.732;-121.358;2023-08-08T10:12:03;5.35;;;4.75;;
49784;SDS011;35679;38.732;-121.358;2023-08-08T10:14:56;4.72;;;4.20;;
49784;SDS011;35679;38.732;-121.358;2023-08-08T10:17:46;5.90;;;4.22;;
49784;SDS011;35679;38.732;-121.358;2023-08-08T10:20:46;5.15;;;3.85;;
49784;SDS011;35679;38.732;-121.358;2023-08-08T10:23:36;6.00;;;4.40;;
49784;SDS011;35679;38.732;-121.358;2023-08-08T10:26:26;5.15;;;4.43;;
49784;SDS011;35679;38.732;-121.358;2023-08-08T10:29:20;5.13;;;4.38;;
49784;SDS011;35679;38.732;-121.358;2023-08-08T10:32:10;4.80;;;4.30;;
49784;SDS011;35679;38.732;-121.358;2023-08-08T10:34:59;5.88;;;4.30;;
49784;SDS011;35679;38.732;-121.358;2023-08-08T10:37:54;4.28;;;3.88;;
49784;SDS011;35679;38.732;-121.358;2023-08-08T10:40:45;5.68;;;4.40;;
49784;SDS011;35679;38.732;-121.358;2023-08-08T10:43:35;5.63;;;4.40;;
49784;SDS011;35679;38.732;-121.358;2023-08-08T10:49:16;5.32;;;3.97;;
49784;SDS011;35679;38.732;-121.358;2023-08-08T10:52:06;5.22;;;4.72;;
49784;SDS011;35679;38.732;-121.358;2023-08-08T10:54:55;4.80;;;4.18;;
49784;SDS011;35679;38.732;-121.358;2023-08-08T10:57:52;5.80;;;4.25;;
49784;SDS011;35679;38.732;-121.358;2023-08-08T11:00:52;4.53;;;4.07;;
49784;SDS011;35679;38.732;-121.358;2023-08-08T11:03:43;4.40;;;4.00;;
49784;SDS011;35679;38.732;-121.358;2023-08-08T11:06:33;4.68;;;4.20;;
49784;SDS011;35679;38.732;-121.358;2023-08-08T11:09:23;4.75;;;3.97;;
49784;SDS011;35679;38.732;-121.358;2023-08-08T11:12:15;5.28;;;3.97;;
49784;SDS011;35679;38.732;-121.358;2023-08-08T11:15:04;4.32;;;3.85;;
49784;SDS011;35679;38.732;-121.358;2023-08-08T11:17:36;4.53;;;4.13;;
49784;SDS011;35679;38.732;-121.358;2023-08-08T11:20:29;5.15;;;3.78;;
49784;SDS011;35679;38.732;-121.358;2023-08-08T11:23:23;6.65;;;3.92;;
49784;SDS011;35679;38.732;-121.358;2023-08-08T11:26:12;4.15;;;3.33;;
49784;SDS011;35679;38.732;-121.358;2023-08-08T11:29:06;6.57;;;3.78;;
49784;SDS011;35679;38.732;-121.358;2023-08-08T11:32:01;5.95;;;3.80;;
49784;SDS011;35679;38.732;-121.358;2023-08-08T11:34:53;5.00;;;3.95;;
49784;SDS011;35679;38.732;-121.358;2023-08-08T11:37:44;3.85;;;3.30;;
49784;SDS011;35679;38.732;-121.358;2023-08-08T11:40:34;3.88;;;3.38;;
49784;SDS011;35679;38.732;-121.358;2023-08-08T11:43:24;7.22;;;4.05;;
49784;SDS011;35679;38.732;-121.358;2023-08-08T11:46:14;4.10;;;3.25;;
49784;SDS011;35679;38.732;-121.358;2023-08-08T11:49:04;4.63;;;3.42;;
49784;SDS011;35679;38.732;-121.358;2023-08-08T11:51:54;4.68;;;3.67;;
49784;SDS011;35679;38.732;-121.358;2023-08-08T11:54:49;4.78;;;3.70;;
49784;SDS011;35679;38.732;-121.358;2023-08-08T11:57:40;4.28;;;3.58;;
49784;SDS011;35679;38.732;-121.358;2023-08-08T12:00:30;4.15;;;3.50;;
49784;SDS011;35679;38.732;-121.358;2023-08-08T12:03:21;5.20;;;3.25;;
49784;SDS011;35679;38.732;-121.358;2023-08-08T12:06:14;4.05;;;3.42;;
49784;SDS011;35679;38.732;-121.358;2023-08-08T12:09:07;4.55;;;3.17;;
49784;SDS011;35679;38.732;-121.358;2023-08-08T12:12:00;4.30;;;3.58;;
49784;SDS011;35679;38.732;-121.358;2023-08-08T12:14:54;5.38;;;3.85;;
49784;SDS011;35679;38.732;-121.358;2023-08-08T12:17:48;5.70;;;3.60;;
49784;SDS011;35679;38.732;-121.358;2023-08-08T12:20:38;4.13;;;3.25;;
49784;SDS011;35679;38.732;-121.358;2023-08-08T12:23:28;5.60;;;4.07;;
49784;SDS011;35679;38.732;-121.358;2023-08-08T12:26:17;4.13;;;3.10;;
49784;SDS011;35679;38.732;-121.358;2023-08-08T12:29:07;4.40;;;3.22;;
49784;SDS011;35679;38.732;-121.358;2023-08-08T12:31:56;5.07;;;3.33;;
49784;SDS011;35679;38.732;-121.358;2023-08-08T12:34:46;5.82;;;3.30;;
49784;SDS011;35679;38.732;-121.358;2023-08-08T12:37:35;6.68;;;3.40;;
49784;SDS011;35679;38.732;-121.358;2023-08-08T12:40:24;3.20;;;2.90;;
49784;SDS011;35679;38.732;-121.358;2023-08-08T12:43:14;3.63;;;2.85;;
49784;SDS011;35679;38.732;-121.358;2023-08-08T12:46:05;5.10;;;3.30;;
49784;SDS011;35679;38.732;-121.358;2023-08-08T12:48:55;4.10;;;3.17;;
49784;SDS011;35679;38.732;-121.358;2023-08-08T12:51:44;3.63;;;3.08;;
49784;SDS011;35679;38.732;-121.358;2023-08-08T12:54:34;5.65;;;3.28;;
49784;SDS011;35679;38.732;-121.358;2023-08-08T12:57:24;5.57;;;3.15;;
49784;SDS011;35679;38.732;-121.358;2023-08-08T13:00:14;6.10;;;3.50;;
49784;SDS011;35679;38.732;-121.358;2023-08-08T13:03:04;5.53;;;3.25;;
49784;SDS011;35679;38.732;-121.358;2023-08-08T13:05:54;4.80;;;3.20;;
49784;SDS011;35679;38.732;-121.358;2023-08-08T13:08:43;6.13;;;3.30;;
49784;SDS011;35679;38.732;-121.358;2023-08-08T13:11:33;5.07;;;3.15;;
49784;SDS011;35679;38.732;-121.358;2023-08-08T13:14:22;4.93;;;3.33;;
49784;SDS011;35679;38.732;-121.358;2023-08-08T13:17:11;4.20;;;3.10;;
49784;SDS011;35679;38.732;-121.358;2023-08-08T13:20:01;4.90;;;3.30;;
49784;SDS011;35679;38.732;-121.358;2023-08-08T13:22:51;6.13;;;3.20;;
49784;SDS011;35679;38.732;-121.358;2023-08-08T13:25:40;3.53;;;3.03;;
49784;SDS011;35679;38.732;-121.358;2023-08-08T13:28:30;3.65;;;3.30;;
49784;SDS011;35679;38.732;-121.358;2023-08-08T13:31:20;3.85;;;3.00;;
49784;SDS011;35679;38.732;-121.358;2023-08-08T13:34:09;4.68;;;3.10;;
49784;SDS011;35679;38.732;-121.358;2023-08-08T13:37:02;3.15;;;2.85;;
49784;SDS011;35679;38.732;-121.358;2023-08-08T13:39:51;7.43;;;3.17;;
49784;SDS011;35679;38.732;-121.358;2023-08-08T13:42:41;3.83;;;2.58;;
49784;SDS011;35679;38.732;-121.358;2023-08-08T13:45:30;3.30;;;2.90;;
49784;SDS011;35679;38.732;-121.358;2023-08-08T13:48:20;4.47;;;3.15;;
49784;SDS011;35679;38.732;-121.358;2023-08-08T13:51:12;7.38;;;3.17;;
49784;SDS011;35679;38.732;-121.358;2023-08-08T13:54:02;3.05;;;2.75;;
49784;SDS011;35679;38.732;-121.358;2023-08-08T13:56:51;3.45;;;2.72;;
49784;SDS011;35679;38.732;-121.358;2023-08-08T13:59:41;5.70;;;2.95;;
49784;SDS011;35679;38.732;-121.358;2023-08-08T14:02:30;4.03;;;3.30;;
49784;SDS011;35679;38.732;-121.358;2023-08-08T14:05:20;3.45;;;3.03;;
49784;SDS011;35679;38.732;-121.358;2023-08-08T14:08:10;3.58;;;2.92;;
49784;SDS011;35679;38.732;-121.358;2023-08-08T14:10:59;3.78;;;3.00;;
49784;SDS011;35679;38.732;-121.358;2023-08-08T14:13:49;4.28;;;2.97;;
49784;SDS011;35679;38.732;-121.358;2023-08-08T14:16:38;4.18;;;3.47;;
49784;SDS011;35679;38.732;-121.358;2023-08-08T14:19:28;3.50;;;3.10;;
49784;SDS011;35679;38.732;-121.358;2023-08-08T14:22:17;3.78;;;3.03;;
49784;SDS011;35679;38.732;-121.358;2023-08-08T14:25:06;4.38;;;3.00;;
49784;SDS011;35679;38.732;-121.358;2023-08-08T14:27:56;3.78;;;3.17;;
49784;SDS011;35679;38.732;-121.358;2023-08-08T14:30:45;4.05;;;3.25;;
49784;SDS011;35679;38.732;-121.358;2023-08-08T14:33:35;4.28;;;3.05;;
49784;SDS011;35679;38.732;-121.358;2023-08-08T14:36:25;4.18;;;2.97;;
49784;SDS011;35679;38.732;-121.358;2023-08-08T14:39:15;3.10;;;2.63;;
49784;SDS011;35679;38.732;-121.358;2023-08-08T14:42:05;6.90;;;3.53;;
49784;SDS011;35679;38.732;-121.358;2023-08-08T14:44:54;3.97;;;3.03;;
49784;SDS011;35679;38.732;-121.358;2023-08-08T14:47:44;4.07;;;3.30;;
49784;SDS011;35679;38.732;-121.358;2023-08-08T14:50:33;6.63;;;3.63;;
49784;SDS011;35679;38.732;-121.358;2023-08-08T14:53:23;4.57;;;3.33;;
49784;SDS011;35679;38.732;-121.358;2023-08-08T14:56:13;4.07;;;2.95;;
49784;SDS011;35679;38.732;-121.358;2023-08-08T14:59:02;4.72;;;3.22;;
49784;SDS011;35679;38.732;-121.358;2023-08-08T15:01:52;3.25;;;2.95;;
49784;SDS011;35679;38.732;-121.358;2023-08-08T15:04:42;4.63;;;2.95;;
49784;SDS011;35679;38.732;-121.358;2023-08-08T15:07:31;4.80;;;2.90;;
49784;SDS011;35679;38.732;-121.358;2023-08-08T15:10:24;3.70;;;3.08;;
49784;SDS011;35679;38.732;-121.358;2023-08-08T15:13:13;3.47;;;3.15;;
49784;SDS011;35679;38.732;-121.358;2023-08-08T15:16:03;3.65;;;2.72;;
49784;SDS011;35679;38.732;-121.358;2023-08-08T15:18:52;4.57;;;3.10;;
49784;SDS011;35679;38.732;-121.358;2023-08-08T15:21:41;4.28;;;3.10;;
49784;SDS011;35679;38.732;-121.358;2023-08-08T15:24:32;4.38;;;3.00;;
49784;SDS011;35679;38.732;-121.358;2023-08-08T15:27:22;6.15;;;3.28;;
49784;SDS011;35679;38.732;-121.358;2023-08-08T15:30:11;4.43;;;4.03;;
49784;SDS011;35679;38.732;-121.358;2023-08-08T15:33:01;4.90;;;4.40;;
49784;SDS011;35679;38.732;-121.358;2023-08-08T15:35:50;4.75;;;4.10;;
49784;SDS011;35679;38.732;-121.358;2023-08-08T15:38:40;4.70;;;4.30;;
49784;SDS011;35679;38.732;-121.358;2023-08-08T15:41:30;4.38;;;4.07;;
49784;SDS011;35679;38.732;-121.358;2023-08-08T15:44:19;6.25;;;4.18;;
49784;SDS011;35679;38.732;-121.358;2023-08-08T15:47:09;4.43;;;4.13;;
49784;SDS011;35679;38.732;-121.358;2023-08-08T15:49:58;4.60;;;4.22;;
49784;SDS011;35679;38.732;-121.358;2023-08-08T15:52:48;4.55;;;4.18;;
49784;SDS011;35679;38.732;-121.358;2023-08-08T15:55:40;4.35;;;4.05;;
49784;SDS011;35679;38.732;-121.358;2023-08-08T15:58:32;6.82;;;4.20;;
49784;SDS011;35679;38.732;-121.358;2023-08-08T16:01:22;4.03;;;3.63;;
49784;SDS011;35679;38.732;-121.358;2023-08-08T16:04:11;6.13;;;4.18;;
49784;SDS011;35679;38.732;-121.358;2023-08-08T16:07:03;4.10;;;3.80;;
49784;SDS011;35679;38.732;-121.358;2023-08-08T16:09:53;4.57;;;4.18;;
49784;SDS011;35679;38.732;-121.358;2023-08-08T16:12:42;4.95;;;4.55;;
49784;SDS011;35679;38.732;-121.358;2023-08-08T16:15:31;4.70;;;4.30;;
49784;SDS011;35679;38.732;-121.358;2023-08-08T16:18:21;5.18;;;4.68;;
49784;SDS011;35679;38.732;-121.358;2023-08-08T16:21:10;5.13;;;4.72;;
49784;SDS011;35679;38.732;-121.358;2023-08-08T16:24:00;4.88;;;4.47;;